Time;durP1;ratioP1;P1;durP2;ratioP2;P2;SDS_P1;SDS_P2;PMS_P1;PMS_P2;Temp;Humidity;BMP_temperature;BMP_pressure;BME280_temperature;BME280_humidity;BME280_pressure;Samples;Min_cycle;Max_cycle;Signal;HPM_P1;HPM_P2
2021/06/02 00:01:37;;;;;;;0.30;0.10;;;23.60;61.20;;;;;;5060439;28;20876;-91
2021/06/02 00:04:03;;;;;;;0.10;0.10;;;23.60;61.00;;;;;;5038122;28;20815;-91
2021/06/02 00:06:40;;;;;;;0.10;0.10;;;23.60;61.10;;;;;;5050274;28;20561;-92
2021/06/02 00:09:06;;;;;;;0.10;0.10;;;23.40;62.00;;;;;;5059372;28;20063;-92
2021/06/02 00:11:35;;;;;;;0.20;0.10;;;23.30;61.60;;;;;;5059226;28;20063;-91
2021/06/02 00:14:02;;;;;;;0.20;0.13;;;23.40;61.50;;;;;;5062884;28;20112;-92
2021/06/02 00:16:28;;;;;;;0.20;0.10;;;23.50;61.50;;;;;;5057975;28;20464;-91
2021/06/02 00:18:53;;;;;;;0.22;0.15;;;23.50;61.60;;;;;;5061777;28;20043;-91
2021/06/02 00:21:19;;;;;;;0.20;0.10;;;23.40;61.70;;;;;;5037914;28;20033;-92
2021/06/02 00:23:45;;;;;;;0.45;0.10;;;23.30;61.90;;;;;;5039796;28;20117;-92
2021/06/02 00:26:13;;;;;;;0.10;0.10;;;23.30;62.60;;;;;;5039368;28;20033;-92
2021/06/02 00:28:39;;;;;;;0.20;0.10;;;23.30;62.10;;;;;;5038189;28;20034;-91
2021/06/02 00:31:06;;;;;;;0.35;0.10;;;23.30;61.90;;;;;;5065252;28;20040;-92
2021/06/02 00:33:32;;;;;;;0.20;0.10;;;23.30;62.10;;;;;;5057166;28;20439;-92
2021/06/02 00:35:59;;;;;;;0.17;0.10;;;23.40;61.50;;;;;;5061160;28;20021;-93
2021/06/02 00:38:26;;;;;;;0.20;0.10;;;23.50;62.00;;;;;;5057593;28;20018;-92
2021/06/02 00:40:52;;;;;;;0.00;0.00;;;23.50;61.70;;;;;;5059217;28;20033;-91
2021/06/02 00:43:19;;;;;;;0.20;0.10;;;23.50;62.00;;;;;;5059112;28;20052;-93
2021/06/02 00:45:46;;;;;;;0.10;0.10;;;23.50;62.00;;;;;;5057514;28;20053;-93
2021/06/02 00:48:17;;;;;;;0.20;0.10;;;23.30;62.80;;;;;;5061204;28;20806;-92
2021/06/02 00:50:44;;;;;;;0.10;0.10;;;23.40;62.80;;;;;;5057719;28;20497;-93
2021/06/02 00:53:10;;;;;;;0.10;0.10;;;23.30;63.00;;;;;;5060158;28;20529;-93
2021/06/02 00:55:36;;;;;;;0.20;0.10;;;23.40;62.10;;;;;;5057146;28;20071;-91
2021/06/02 00:58:02;;;;;;;0.15;0.15;;;23.40;62.50;;;;;;5059670;28;20025;-93
2021/06/02 01:00:29;;;;;;;0.22;0.10;;;23.40;62.50;;;;;;5058155;28;20510;-93
2021/06/02 01:02:57;;;;;;;0.13;0.10;;;23.30;63.10;;;;;;5056739;28;20090;-91
2021/06/02 01:05:24;;;;;;;0.20;0.10;;;23.30;63.20;;;;;;5059895;28;20115;-94
2021/06/02 01:07:51;;;;;;;0.20;0.10;;;23.30;62.90;;;;;;5057010;28;20115;-93
2021/06/02 01:10:18;;;;;;;0.20;0.10;;;23.30;63.00;;;;;;5056830;28;20060;-94
2021/06/02 01:12:47;;;;;;;0.10;0.10;;;23.20;63.80;;;;;;5037188;28;20057;-92
2021/06/02 01:15:13;;;;;;;0.10;0.10;;;23.20;63.60;;;;;;5049405;28;20032;-91
2021/06/02 01:17:41;;;;;;;0.22;0.13;;;23.20;63.40;;;;;;5057395;28;20120;-92
2021/06/02 01:20:07;;;;;;;0.30;0.10;;;23.10;64.10;;;;;;5056499;28;20059;-91
2021/06/02 01:22:35;;;;;;;0.13;0.10;;;23.10;64.20;;;;;;5060398;28;20376;-91
2021/06/02 01:25:08;;;;;;;0.10;0.10;;;23.10;64.30;;;;;;5056893;28;20060;-90
2021/06/02 01:27:34;;;;;;;0.22;0.10;;;23.10;64.30;;;;;;5060110;28;20040;-91
2021/06/02 01:30:00;;;;;;;0.30;0.10;;;23.10;64.60;;;;;;5048638;28;20029;-91
2021/06/02 01:32:44;;;;;;;0.10;0.10;;;23.10;64.10;;;;;;5041227;28;20147;-92
2021/06/02 01:35:22;;;;;;;0.32;0.15;;;23.10;63.60;;;;;;5036594;28;20029;-92
2021/06/02 01:37:54;;;;;;;0.10;0.10;;;23.20;63.40;;;;;;5042395;28;20026;-92
2021/06/02 01:40:44;;;;;;;0.10;0.10;;;23.30;63.20;;;;;;5037710;28;20025;-91
2021/06/02 01:43:35;;;;;;;0.15;0.10;;;23.20;64.00;;;;;;5043322;28;20159;-91
2021/06/02 01:46:19;;;;;;;0.28;0.20;;;23.10;64.00;;;;;;5037409;28;20022;-91
2021/06/02 01:49:07;;;;;;;0.20;0.10;;;23.10;63.80;;;;;;5036242;28;20020;-90
2021/06/02 01:51:57;;;;;;;0.47;0.10;;;23.00;64.10;;;;;;5038005;28;20029;-92
2021/06/02 01:54:49;;;;;;;0.38;0.20;;;23.00;64.40;;;;;;5040410;28;20056;-90
2021/06/02 01:57:53;;;;;;;0.50;0.10;;;23.00;64.70;;;;;;5057908;28;20494;-92
2021/06/02 02:00:43;;;;;;;0.10;0.10;;;22.90;64.50;;;;;;5057464;28;20111;-91
2021/06/02 02:03:15;;;;;;;0.20;0.20;;;22.90;64.80;;;;;;5057760;28;20100;-92
2021/06/02 02:06:15;;;;;;;0.20;0.10;;;22.80;65.30;;;;;;5055717;28;20460;-90
2021/06/02 02:09:11;;;;;;;0.10;0.10;;;22.80;65.40;;;;;;5057677;28;20029;-90
2021/06/02 02:11:40;;;;;;;0.28;0.15;;;22.60;65.70;;;;;;5042559;28;20026;-91
2021/06/02 02:14:36;;;;;;;0.10;0.10;;;22.60;66.20;;;;;;5039583;28;20034;-92
2021/06/02 02:17:25;;;;;;;0.25;0.17;;;22.50;66.30;;;;;;5036237;28;20097;-93
2021/06/02 02:20:17;;;;;;;0.10;0.10;;;22.50;66.50;;;;;;5038544;28;20055;-91
2021/06/02 02:23:14;;;;;;;0.30;0.10;;;22.50;66.80;;;;;;5035894;28;20109;-92
2021/06/02 02:25:55;;;;;;;0.20;0.20;;;22.60;66.30;;;;;;5046226;28;20049;-92
2021/06/02 02:28:23;;;;;;;0.20;0.17;;;22.50;66.70;;;;;;5036014;28;20086;-92
2021/06/02 02:30:52;;;;;;;0.60;0.30;;;22.50;66.60;;;;;;5039615;28;20036;-92
2021/06/02 02:33:26;;;;;;;0.15;0.15;;;22.40;67.40;;;;;;5048746;28;20023;-92
2021/06/02 02:36:14;;;;;;;0.20;0.10;;;22.30;67.80;;;;;;5040729;28;20028;-92
2021/06/02 02:39:17;;;;;;;0.20;0.20;;;22.30;67.90;;;;;;5052478;28;20051;-92
2021/06/02 02:42:01;;;;;;;0.20;0.20;;;22.30;68.00;;;;;;5039269;28;20060;-92
2021/06/02 02:44:39;;;;;;;0.20;0.10;;;22.30;67.80;;;;;;5052045;28;20068;-92
2021/06/02 02:47:17;;;;;;;0.35;0.20;;;22.20;67.90;;;;;;5039361;28;20466;-91
2021/06/02 02:50:04;;;;;;;0.10;0.10;;;22.10;68.60;;;;;;5052018;28;20029;-92
2021/06/02 02:53:04;;;;;;;0.20;0.20;;;22.00;68.70;;;;;;5055302;28;20049;-92
2021/06/02 02:55:33;;;;;;;0.15;0.15;;;22.00;68.90;;;;;;5035377;28;20029;-92
2021/06/02 02:58:23;;;;;;;0.32;0.20;;;21.90;69.30;;;;;;5041021;28;20061;-92
2021/06/02 03:01:03;;;;;;;0.40;0.20;;;21.70;69.80;;;;;;5040716;28;20501;-91
2021/06/02 03:03:54;;;;;;;0.22;0.10;;;21.70;69.80;;;;;;5058774;28;20033;-92
2021/06/02 03:06:25;;;;;;;0.40;0.20;;;21.70;69.80;;;;;;5055334;28;20036;-92
2021/06/02 03:09:19;;;;;;;0.10;0.10;;;21.70;69.40;;;;;;5057068;28;20115;-92
2021/06/02 03:11:58;;;;;;;0.40;0.20;;;21.70;69.30;;;;;;5055493;28;20047;-93
2021/06/02 03:14:53;;;;;;;0.20;0.20;;;21.70;69.70;;;;;;5059312;28;20031;-91
2021/06/02 03:17:23;;;;;;;0.20;0.20;;;21.60;70.10;;;;;;5059427;28;20050;-92
2021/06/02 03:20:25;;;;;;;0.10;0.10;;;21.50;69.90;;;;;;5053977;28;20561;-91
2021/06/02 03:23:20;;;;;;;0.52;0.30;;;21.50;69.70;;;;;;5044609;28;20430;-92
2021/06/02 03:26:23;;;;;;;0.40;0.20;;;21.70;69.30;;;;;;5058050;28;20041;-93
2021/06/02 03:29:13;;;;;;;0.22;0.20;;;21.70;68.90;;;;;;5023537;28;20154;-93
2021/06/02 03:32:17;;;;;;;0.38;0.20;;;21.80;68.70;;;;;;5050298;28;20029;-92
2021/06/02 03:34:48;;;;;;;0.30;0.20;;;21.80;68.90;;;;;;5059195;28;20479;-92
2021/06/02 03:37:27;;;;;;;0.10;0.10;;;21.80;68.30;;;;;;5049840;28;20025;-93
2021/06/02 03:40:16;;;;;;;0.20;0.20;;;21.80;68.60;;;;;;5040977;28;20492;-93
2021/06/02 03:42:58;;;;;;;0.25;0.20;;;21.80;69.00;;;;;;5055449;28;20018;-92
2021/06/02 03:45:40;;;;;;;0.40;0.20;;;21.80;68.60;;;;;;5051426;28;20085;-92
2021/06/02 03:48:29;;;;;;;0.13;0.10;;;21.80;68.60;;;;;;5058300;28;20058;-92
2021/06/02 03:51:04;;;;;;;0.20;0.10;;;21.70;69.20;;;;;;5061407;28;20029;-92
2021/06/02 03:53:51;;;;;;;0.40;0.20;;;21.60;69.70;;;;;;5057796;28;20087;-92
2021/06/02 03:56:34;;;;;;;0.10;0.10;;;21.60;69.70;;;;;;5062028;28;20446;-92
2021/06/02 03:59:18;;;;;;;0.20;0.20;;;21.60;69.70;;;;;;5054843;28;20109;-93
2021/06/02 04:02:08;;;;;;;0.20;0.10;;;21.50;69.80;;;;;;5042888;28;20026;-92
2021/06/02 04:05:06;;;;;;;0.30;0.20;;;21.50;69.70;;;;;;5039559;28;20144;-93
2021/06/02 04:07:40;;;;;;;0.10;0.10;;;21.50;70.40;;;;;;5041722;28;20135;-94
2021/06/02 04:10:12;;;;;;;0.30;0.20;;;21.40;70.20;;;;;;5053965;28;20032;-93
2021/06/02 04:13:03;;;;;;;0.32;0.20;;;21.30;70.40;;;;;;5061729;28;20025;-91
2021/06/02 04:15:30;;;;;;;0.30;0.25;;;21.30;70.30;;;;;;5044629;28;20025;-93
2021/06/02 04:17:56;;;;;;;0.20;0.20;;;21.30;69.90;;;;;;5038574;28;20048;-90
2021/06/02 04:20:22;;;;;;;0.45;0.30;;;21.40;69.80;;;;;;5037516;28;20491;-85
2021/06/02 04:22:52;;;;;;;0.20;0.20;;;21.40;69.70;;;;;;5044958;28;20030;-91
2021/06/02 04:25:18;;;;;;;0.30;0.20;;;21.50;69.50;;;;;;5056829;28;20083;-86
2021/06/02 04:27:48;;;;;;;0.25;0.20;;;21.50;69.70;;;;;;5056041;28;20021;-85
2021/06/02 04:30:18;;;;;;;0.43;0.20;;;21.60;69.30;;;;;;5043071;28;20044;-86
2021/06/02 04:32:46;;;;;;;0.20;0.10;;;21.60;68.80;;;;;;5049466;28;20704;-86
2021/06/02 04:35:15;;;;;;;0.30;0.20;;;21.60;69.20;;;;;;5049690;28;20053;-87
2021/06/02 04:37:42;;;;;;;0.20;0.20;;;21.60;69.30;;;;;;5045734;28;20523;-85
2021/06/02 04:40:09;;;;;;;0.30;0.15;;;21.50;69.60;;;;;;5037475;28;20436;-87
2021/06/02 04:42:40;;;;;;;0.38;0.20;;;21.40;69.90;;;;;;5047258;28;20041;-86
2021/06/02 04:45:11;;;;;;;0.20;0.17;;;21.30;69.90;;;;;;5042441;28;20527;-86
2021/06/02 04:47:41;;;;;;;0.40;0.30;;;21.30;70.20;;;;;;5043896;28;20767;-86
2021/06/02 04:50:10;;;;;;;0.30;0.20;;;21.20;70.50;;;;;;5044279;28;20774;-86
2021/06/02 04:52:54;;;;;;;0.37;0.20;;;21.00;71.20;;;;;;5043654;28;20049;-86
2021/06/02 04:55:48;;;;;;;0.30;0.20;;;21.00;71.30;;;;;;5048753;28;20020;-81
2021/06/02 04:58:25;;;;;;;0.22;0.20;;;21.00;71.10;;;;;;5045599;28;20021;-82
2021/06/02 05:01:08;;;;;;;0.30;0.20;;;21.00;71.30;;;;;;5045275;28;20030;-87
2021/06/02 05:03:58;;;;;;;0.40;0.22;;;21.00;70.90;;;;;;5043903;28;20046;-81
2021/06/02 05:06:46;;;;;;;0.25;0.20;;;21.00;70.70;;;;;;5047513;28;20104;-81
2021/06/02 05:09:53;;;;;;;0.30;0.20;;;21.10;70.80;;;;;;5041746;28;20059;-85
2021/06/02 05:12:43;;;;;;;0.28;0.20;;;21.20;70.70;;;;;;5043104;28;20025;-87
2021/06/02 05:15:51;;;;;;;0.38;0.20;;;21.30;70.00;;;;;;5042778;28;20033;-86
2021/06/02 05:18:58;;;;;;;0.50;0.30;;;21.30;70.00;;;;;;5045562;28;20029;-85
2021/06/02 05:22:05;;;;;;;0.47;0.20;;;21.40;69.40;;;;;;5044165;28;20517;-87
2021/06/02 05:25:02;;;;;;;0.30;0.20;;;21.30;69.40;;;;;;5038531;28;20461;-81
2021/06/02 05:27:49;;;;;;;0.10;0.10;;;21.30;69.60;;;;;;5044973;28;20065;-81
2021/06/02 05:30:47;;;;;;;0.30;0.20;;;21.40;69.30;;;;;;5041131;28;20021;-80
2021/06/02 05:33:30;;;;;;;0.50;0.20;;;21.50;69.10;;;;;;5041091;28;20064;-80
2021/06/02 05:36:14;;;;;;;0.30;0.20;;;21.40;69.30;;;;;;5037178;28;20029;-80
2021/06/02 05:39:22;;;;;;;0.30;0.20;;;21.50;69.40;;;;;;5043113;28;20379;-79
2021/06/02 05:42:17;;;;;;;0.40;0.30;;;21.50;69.60;;;;;;5045917;28;20188;-80
2021/06/02 05:45:20;;;;;;;0.35;0.20;;;21.50;69.70;;;;;;5039832;28;20029;-79
2021/06/02 05:48:01;;;;;;;0.82;0.22;;;21.50;69.80;;;;;;5043611;28;20029;-85
2021/06/02 05:50:39;;;;;;;0.20;0.10;;;21.60;69.40;;;;;;5034625;28;20048;-77
2021/06/02 05:56:28;;;;;;;0.40;0.20;;;21.60;69.70;;;;;;5071091;28;20383;-78
2021/06/02 05:59:18;;;;;;;0.43;0.20;;;21.50;70.50;;;;;;5071583;28;20033;-79
2021/06/02 06:02:02;;;;;;;0.30;0.25;;;21.40;70.50;;;;;;5064637;28;20074;-80
2021/06/02 06:04:31;;;;;;;0.20;0.20;;;21.40;70.60;;;;;;5091269;28;20020;-80
2021/06/02 06:06:59;;;;;;;0.82;0.20;;;21.50;70.50;;;;;;5091225;28;20025;-79
2021/06/02 06:09:51;;;;;;;0.50;0.20;;;21.50;70.80;;;;;;5057174;28;20029;-79
2021/06/02 06:12:51;;;;;;;0.30;0.20;;;21.60;70.40;;;;;;5067302;28;20108;-81
2021/06/02 06:15:51;;;;;;;0.50;0.20;;;21.70;70.20;;;;;;5065854;28;20197;-80
2021/06/02 06:18:23;;;;;;;0.43;0.22;;;21.80;70.20;;;;;;5070193;28;20024;-80
2021/06/02 06:20:54;;;;;;;0.38;0.20;;;21.80;70.10;;;;;;5068936;28;20036;-78
2021/06/02 06:23:45;;;;;;;0.30;0.10;;;22.00;69.50;;;;;;5067751;28;20062;-78
2021/06/02 06:26:30;;;;;;;0.55;0.20;;;21.90;69.80;;;;;;5062229;28;20024;-81
2021/06/02 06:29:10;;;;;;;0.40;0.20;;;22.00;69.90;;;;;;5083574;28;20111;-81
2021/06/02 06:31:40;;;;;;;0.73;0.20;;;21.90;70.30;;;;;;5069340;28;20032;-81
2021/06/02 06:34:14;;;;;;;0.73;0.30;;;21.90;70.00;;;;;;5071302;28;20135;-81
2021/06/02 06:36:41;;;;;;;0.30;0.20;;;22.00;70.00;;;;;;5069657;28;20024;-81
2021/06/02 06:39:38;;;;;;;0.45;0.20;;;22.00;70.10;;;;;;5071320;28;20033;-80
2021/06/02 06:42:05;;;;;;;0.73;0.30;;;22.10;69.90;;;;;;5071003;28;20490;-81
2021/06/02 06:44:33;;;;;;;0.50;0.28;;;22.10;70.10;;;;;;5053487;28;20060;-82
2021/06/02 06:47:01;;;;;;;0.50;0.30;;;22.10;70.40;;;;;;5063476;28;20027;-81
2021/06/02 06:49:31;;;;;;;0.40;0.30;;;22.00;70.80;;;;;;5057053;28;20067;-81
2021/06/02 06:51:58;;;;;;;0.38;0.20;;;22.10;70.80;;;;;;5051194;28;20025;-85
2021/06/02 06:54:24;;;;;;;0.50;0.30;;;22.00;71.20;;;;;;5063365;28;20056;-85
2021/06/02 06:56:51;;;;;;;0.30;0.20;;;22.10;71.60;;;;;;5065914;28;20036;-85
2021/06/02 06:59:19;;;;;;;0.30;0.20;;;22.10;71.30;;;;;;5067586;28;20025;-84
2021/06/02 07:01:46;;;;;;;0.40;0.28;;;22.00;71.90;;;;;;5064933;28;20021;-85
2021/06/02 07:04:12;;;;;;;0.40;0.20;;;22.00;72.00;;;;;;5068870;28;20798;-86
2021/06/02 07:06:38;;;;;;;0.75;0.30;;;21.90;72.20;;;;;;5056347;28;20060;-85
2021/06/02 07:09:06;;;;;;;0.40;0.20;;;22.00;72.10;;;;;;5037656;28;20021;-87
2021/06/02 07:11:43;;;;;;;0.40;0.20;;;21.90;72.00;;;;;;5037883;28;20029;-86
2021/06/02 07:14:11;;;;;;;0.40;0.30;;;21.80;72.80;;;;;;5038644;28;20479;-84
2021/06/02 07:16:39;;;;;;;0.30;0.20;;;21.80;73.00;;;;;;5050053;28;20029;-86
2021/06/02 07:19:07;;;;;;;0.35;0.28;;;21.80;73.20;;;;;;5057451;28;20357;-86
2021/06/02 07:21:35;;;;;;;0.38;0.22;;;21.80;73.00;;;;;;5043596;28;20029;-84
2021/06/02 07:24:05;;;;;;;0.40;0.20;;;21.80;72.80;;;;;;5041421;28;20018;-84
2021/06/02 07:26:30;;;;;;;0.50;0.30;;;21.90;72.40;;;;;;5037287;28;20038;-84
2021/06/02 07:28:57;;;;;;;0.10;0.10;;;21.90;72.60;;;;;;5065409;28;20032;-83
2021/06/02 07:31:23;;;;;;;0.50;0.20;;;21.80;72.70;;;;;;5055590;28;20095;-84
2021/06/02 07:33:49;;;;;;;0.28;0.20;;;21.80;72.40;;;;;;5053949;28;20388;-85
2021/06/02 07:36:15;;;;;;;0.65;0.28;;;21.80;72.60;;;;;;5045771;28;20033;-84
2021/06/02 07:38:41;;;;;;;0.70;0.20;;;21.70;72.80;;;;;;5035444;28;20055;-84
2021/06/02 07:41:08;;;;;;;0.45;0.20;;;21.60;73.10;;;;;;5036933;28;20431;-85
2021/06/02 07:43:33;;;;;;;0.50;0.20;;;21.80;72.30;;;;;;5047006;28;20021;-85
2021/06/02 07:45:59;;;;;;;0.32;0.20;;;21.90;71.70;;;;;;5056305;28;20391;-85
2021/06/02 07:48:25;;;;;;;0.70;0.25;;;22.00;71.20;;;;;;5055044;28;20041;-86
2021/06/02 07:50:51;;;;;;;0.40;0.20;;;22.20;70.60;;;;;;5055493;28;20036;-85
2021/06/02 07:53:17;;;;;;;0.35;0.20;;;22.10;70.90;;;;;;5055502;28;20033;-84
2021/06/02 07:55:42;;;;;;;0.50;0.30;;;22.00;70.80;;;;;;5053012;28;20056;-84
2021/06/02 07:58:08;;;;;;;0.35;0.20;;;22.10;70.50;;;;;;5039337;28;20041;-85
2021/06/02 08:00:34;;;;;;;0.30;0.22;;;22.00;70.60;;;;;;5050841;28;20033;-84
2021/06/02 08:03:00;;;;;;;0.28;0.20;;;22.30;70.10;;;;;;5038069;28;22579;-84
2021/06/02 08:05:26;;;;;;;0.43;0.20;;;22.40;68.80;;;;;;5051785;28;20033;-83
2021/06/02 08:07:51;;;;;;;0.50;0.28;;;22.40;68.20;;;;;;5051382;28;20048;-83
2021/06/02 08:10:18;;;;;;;0.30;0.20;;;22.60;68.20;;;;;;5051154;28;20533;-84
2021/06/02 08:12:45;;;;;;;0.60;0.20;;;22.90;66.80;;;;;;5053877;28;20048;-84
2021/06/02 08:15:12;;;;;;;0.52;0.17;;;23.10;66.50;;;;;;5052959;28;20051;-83
2021/06/02 08:17:39;;;;;;;0.38;0.17;;;23.20;66.30;;;;;;5034472;28;20071;-83
2021/06/02 08:20:07;;;;;;;0.28;0.10;;;22.90;66.70;;;;;;5033665;28;20025;-82
2021/06/02 08:22:33;;;;;;;0.50;0.20;;;23.10;66.00;;;;;;5034399;28;20040;-83
2021/06/02 08:25:10;;;;;;;0.20;0.10;;;23.10;66.10;;;;;;5045308;28;20028;-83
2021/06/02 08:27:36;;;;;;;0.20;0.10;;;23.60;64.80;;;;;;5032187;28;20040;-83
2021/06/02 08:30:03;;;;;;;0.20;0.10;;;24.00;63.50;;;;;;5058873;28;20031;-83
2021/06/02 08:32:29;;;;;;;0.28;0.10;;;23.90;63.40;;;;;;5074589;28;20024;-83
2021/06/02 08:34:54;;;;;;;0.38;0.20;;;23.90;63.70;;;;;;5059324;28;20058;-83
2021/06/02 08:37:20;;;;;;;0.55;0.20;;;23.60;64.50;;;;;;5053907;28;20037;-83
2021/06/02 08:39:47;;;;;;;0.20;0.10;;;23.50;63.90;;;;;;5048719;28;20047;-83
2021/06/02 08:42:13;;;;;;;0.20;0.10;;;23.40;64.00;;;;;;5034538;28;20026;-83
2021/06/02 08:44:39;;;;;;;0.40;0.20;;;23.40;64.30;;;;;;5053843;28;20037;-83
2021/06/02 08:47:05;;;;;;;0.32;0.15;;;23.30;65.00;;;;;;5036211;28;20084;-83
2021/06/02 08:49:31;;;;;;;0.40;0.20;;;23.30;64.90;;;;;;5040935;28;20021;-84
2021/06/02 08:52:00;;;;;;;0.47;0.25;;;23.20;65.30;;;;;;5035537;28;20403;-83
2021/06/02 08:54:26;;;;;;;0.30;0.20;;;23.30;65.00;;;;;;5033952;28;20049;-83
2021/06/02 08:56:53;;;;;;;0.47;0.20;;;23.30;65.10;;;;;;5034166;28;20271;-83
2021/06/02 08:59:19;;;;;;;0.30;0.15;;;23.20;65.50;;;;;;5035768;28;20094;-83
2021/06/02 09:01:46;;;;;;;0.30;0.10;;;23.20;65.70;;;;;;5033993;28;20025;-83
2021/06/02 09:04:12;;;;;;;0.55;0.20;;;23.00;66.00;;;;;;5033699;28;20105;-83
2021/06/02 09:06:47;;;;;;;0.50;0.20;;;23.00;66.30;;;;;;5033876;28;20033;-84
2021/06/02 09:09:17;;;;;;;0.52;0.20;;;22.90;66.50;;;;;;5034074;28;20040;-83
2021/06/02 09:11:46;;;;;;;0.50;0.30;;;22.80;66.60;;;;;;5034215;28;20376;-83
2021/06/02 09:14:28;;;;;;;0.57;0.20;;;22.70;67.40;;;;;;5040003;28;20033;-83
2021/06/02 09:16:59;;;;;;;0.47;0.28;;;22.70;67.20;;;;;;5033908;28;20487;-83
2021/06/02 09:19:53;;;;;;;0.38;0.20;;;22.40;68.20;;;;;;5052817;28;20025;-83
2021/06/02 09:22:21;;;;;;;0.45;0.30;;;22.40;67.70;;;;;;5061875;28;20110;-83
2021/06/02 09:25:01;;;;;;;0.20;0.20;;;22.30;68.00;;;;;;5053084;28;20055;-83
2021/06/02 09:27:43;;;;;;;0.25;0.20;;;22.10;68.50;;;;;;5049311;28;20074;-83
2021/06/02 09:30:14;;;;;;;0.40;0.20;;;21.80;68.80;;;;;;5050516;28;20032;-83
2021/06/02 09:32:48;;;;;;;0.30;0.20;;;21.50;69.60;;;;;;5053354;28;20088;-83
2021/06/02 09:35:16;;;;;;;0.20;0.10;;;21.50;69.70;;;;;;5042603;28;20056;-83
2021/06/02 09:37:52;;;;;;;0.30;0.20;;;21.60;69.40;;;;;;5053746;28;20441;-82
2021/06/02 09:40:20;;;;;;;0.32;0.20;;;21.80;68.70;;;;;;5050619;28;20033;-83
2021/06/02 09:42:46;;;;;;;0.40;0.20;;;21.70;69.30;;;;;;5037525;28;20021;-82
2021/06/02 09:45:14;;;;;;;0.38;0.28;;;21.70;69.20;;;;;;5039666;28;20099;-82
2021/06/02 09:47:44;;;;;;;0.30;0.30;;;21.50;69.80;;;;;;5034624;28;20029;-82
2021/06/02 09:50:11;;;;;;;0.38;0.20;;;21.50;69.80;;;;;;5051793;28;20025;-82
2021/06/02 09:52:46;;;;;;;0.43;0.30;;;21.40;70.30;;;;;;5040499;28;20057;-83
2021/06/02 09:55:14;;;;;;;0.47;0.30;;;21.40;70.30;;;;;;5032848;28;20068;-84
2021/06/02 09:57:40;;;;;;;0.35;0.20;;;21.50;70.20;;;;;;5033352;28;20022;-83
2021/06/02 10:00:08;;;;;;;0.50;0.30;;;21.60;69.80;;;;;;5033026;28;20040;-84
2021/06/02 10:02:34;;;;;;;0.40;0.30;;;21.70;69.60;;;;;;5035901;28;20036;-80
2021/06/02 10:05:05;;;;;;;0.40;0.30;;;21.60;70.20;;;;;;5052227;28;20029;-85
2021/06/02 10:07:31;;;;;;;0.70;0.30;;;21.40;70.90;;;;;;5053377;28;20423;-79
2021/06/02 10:10:17;;;;;;;0.30;0.20;;;21.20;72.00;;;;;;5051658;28;20063;-80
2021/06/02 10:12:58;;;;;;;0.50;0.30;;;20.90;73.10;;;;;;5051947;28;20025;-77
2021/06/02 10:15:31;;;;;;;0.28;0.20;;;20.80;74.50;;;;;;5046994;28;20038;-84
2021/06/02 10:17:58;;;;;;;0.70;0.30;;;20.80;75.20;;;;;;5051452;28;20407;-81
2021/06/02 10:20:24;;;;;;;0.43;0.30;;;20.90;74.70;;;;;;5040505;28;20040;-82
2021/06/02 10:22:53;;;;;;;0.30;0.20;;;20.90;75.40;;;;;;5041023;28;20873;-83
2021/06/02 10:25:20;;;;;;;0.20;0.20;;;20.80;75.70;;;;;;5054978;28;20034;-80
2021/06/02 10:27:49;;;;;;;0.30;0.30;;;20.80;75.70;;;;;;5061081;28;20077;-83
2021/06/02 10:30:15;;;;;;;0.25;0.20;;;20.80;75.00;;;;;;5040717;28;20439;-82
2021/06/02 10:32:41;;;;;;;0.30;0.30;;;20.60;75.60;;;;;;5040708;28;20026;-80
2021/06/02 10:35:07;;;;;;;0.20;0.10;;;20.50;76.20;;;;;;5045299;28;20044;-80
2021/06/02 10:37:39;;;;;;;0.50;0.30;;;20.50;76.30;;;;;;5047462;28;20029;-80
2021/06/02 10:40:10;;;;;;;0.30;0.28;;;20.40;77.20;;;;;;5047618;28;20568;-83
2021/06/02 10:42:41;;;;;;;0.40;0.30;;;20.40;77.30;;;;;;5045791;28;20121;-83
2021/06/02 10:45:24;;;;;;;0.45;0.30;;;20.40;77.70;;;;;;5049327;28;20032;-82
2021/06/02 10:47:55;;;;;;;0.70;0.50;;;20.30;76.40;;;;;;5052561;28;20099;-80
2021/06/02 10:50:39;;;;;;;0.57;0.30;;;20.50;76.00;;;;;;5041753;28;20030;-79
2021/06/02 10:53:25;;;;;;;0.70;0.35;;;20.80;74.50;;;;;;5044031;28;20056;-82
2021/06/02 10:55:57;;;;;;;0.65;0.30;;;20.80;73.30;;;;;;5052624;28;20870;-83
2021/06/02 10:58:27;;;;;;;0.55;0.30;;;21.00;71.50;;;;;;5051786;28;20035;-77
2021/06/02 11:01:17;;;;;;;0.68;0.30;;;20.90;72.10;;;;;;5042016;28;20033;-80
2021/06/02 11:04:04;;;;;;;0.38;0.28;;;20.90;71.40;;;;;;5044136;28;21295;-80
2021/06/02 11:06:35;;;;;;;0.40;0.30;;;20.80;71.40;;;;;;5043402;28;20071;-81
2021/06/02 11:09:00;;;;;;;0.80;0.32;;;20.70;71.50;;;;;;5049116;28;20384;-80
2021/06/02 11:11:33;;;;;;;0.70;0.30;;;20.80;71.50;;;;;;5048690;28;20061;-81
2021/06/02 11:17:00;;;;;;;0.30;0.30;;;20.50;71.50;;;;;;5050623;28;20032;-82
2021/06/02 11:19:38;;;;;;;0.43;0.30;;;20.40;71.70;;;;;;5044760;28;20025;-81
2021/06/02 11:22:06;;;;;;;0.47;0.30;;;20.60;71.40;;;;;;5043469;28;20029;-80
2021/06/02 11:24:32;;;;;;;0.30;0.20;;;20.50;70.50;;;;;;5040551;28;20035;-80
2021/06/02 11:27:13;;;;;;;0.50;0.30;;;20.40;71.30;;;;;;5048410;28;20040;-80
2021/06/02 11:29:47;;;;;;;0.40;0.30;;;20.50;71.00;;;;;;5040421;28;20031;-80
2021/06/02 11:32:21;;;;;;;0.50;0.30;;;20.70;70.50;;;;;;5046791;28;20044;-80
2021/06/02 11:34:50;;;;;;;0.30;0.20;;;20.80;70.10;;;;;;5042473;28;20057;-80
2021/06/02 11:37:17;;;;;;;0.30;0.20;;;20.90;69.10;;;;;;5050691;28;20032;-80
2021/06/02 11:39:44;;;;;;;0.43;0.30;;;20.90;69.20;;;;;;5055112;28;20025;-80
2021/06/02 11:42:26;;;;;;;0.63;0.30;;;21.00;68.60;;;;;;5048452;28;20043;-81
2021/06/02 11:45:02;;;;;;;0.40;0.30;;;21.00;68.70;;;;;;5036559;28;20036;-80
2021/06/02 11:47:28;;;;;;;0.50;0.30;;;20.80;69.30;;;;;;5033964;28;20095;-76
2021/06/02 11:50:11;;;;;;;0.50;0.30;;;20.80;69.60;;;;;;5036844;28;20032;-77
2021/06/02 11:52:38;;;;;;;0.50;0.30;;;20.80;69.30;;;;;;5040638;28;20021;-80
2021/06/02 11:55:06;;;;;;;0.30;0.22;;;20.90;69.20;;;;;;5035981;28;20419;-76
2021/06/02 11:57:43;;;;;;;0.32;0.20;;;21.00;69.00;;;;;;5036289;28;20040;-76
2021/06/02 12:00:15;;;;;;;0.50;0.20;;;21.00;67.90;;;;;;5034599;28;20036;-76
2021/06/02 12:02:42;;;;;;;0.43;0.22;;;21.00;67.60;;;;;;5036171;28;20029;-77
2021/06/02 12:05:24;;;;;;;0.60;0.17;;;21.10;66.90;;;;;;5042028;28;20044;-77
2021/06/02 12:07:59;;;;;;;0.50;0.28;;;21.30;66.30;;;;;;5037143;28;20033;-76
2021/06/02 12:10:42;;;;;;;0.40;0.20;;;21.50;66.20;;;;;;5036236;28;20487;-77
2021/06/02 12:13:14;;;;;;;0.47;0.20;;;21.60;64.90;;;;;;5047644;28;20067;-77
2021/06/02 12:15:47;;;;;;;0.40;0.30;;;21.40;65.70;;;;;;5060527;28;20044;-76
2021/06/02 12:18:38;;;;;;;0.20;0.20;;;21.30;65.70;;;;;;5034823;28;20083;-77
2021/06/02 12:21:27;;;;;;;0.80;0.50;;;21.10;66.30;;;;;;5041209;28;20032;-77
2021/06/02 12:24:03;;;;;;;0.50;0.30;;;21.10;66.60;;;;;;5038097;28;20104;-77
2021/06/02 12:26:28;;;;;;;0.55;0.30;;;21.20;66.60;;;;;;5035680;28;20025;-76
2021/06/02 12:28:56;;;;;;;0.47;0.22;;;21.20;65.40;;;;;;5049784;28;20079;-77
2021/06/02 12:31:34;;;;;;;0.40;0.20;;;21.30;65.50;;;;;;5075720;28;20035;-77
2021/06/02 12:34:09;;;;;;;0.50;0.20;;;21.50;64.90;;;;;;5073822;28;20025;-77
2021/06/02 12:36:37;;;;;;;0.38;0.20;;;21.70;64.30;;;;;;5060832;28;20064;-78
2021/06/02 12:39:11;;;;;;;0.30;0.20;;;21.80;64.10;;;;;;5042752;28;20029;-77
2021/06/02 12:41:40;;;;;;;0.20;0.10;;;21.70;63.50;;;;;;5052862;28;20174;-75
2021/06/02 12:44:07;;;;;;;0.28;0.17;;;21.60;63.60;;;;;;5038309;28;20086;-75
2021/06/02 12:46:32;;;;;;;0.32;0.20;;;21.70;64.50;;;;;;5035441;28;20092;-75
2021/06/02 12:48:58;;;;;;;0.40;0.20;;;21.50;63.90;;;;;;5050576;28;20116;-75
2021/06/02 12:51:25;;;;;;;0.35;0.20;;;21.60;63.90;;;;;;5052973;28;20039;-75
2021/06/02 12:53:52;;;;;;;0.10;0.10;;;21.50;63.50;;;;;;5053780;28;20116;-75
2021/06/02 12:56:19;;;;;;;0.30;0.20;;;21.60;62.80;;;;;;5053383;28;20112;-75
2021/06/02 12:58:54;;;;;;;0.20;0.20;;;21.60;63.00;;;;;;5052321;28;20033;-75
2021/06/02 13:01:21;;;;;;;0.40;0.20;;;21.70;62.90;;;;;;5035173;28;20101;-75
2021/06/02 13:03:50;;;;;;;0.35;0.10;;;21.60;62.90;;;;;;5042728;28;20021;-75
2021/06/02 13:06:28;;;;;;;0.30;0.20;;;21.70;62.70;;;;;;5045907;28;20094;-75
2021/06/02 13:08:53;;;;;;;0.32;0.20;;;21.80;62.60;;;;;;5061442;28;20452;-75
2021/06/02 13:11:26;;;;;;;0.35;0.20;;;22.00;62.30;;;;;;5052931;28;20025;-75
2021/06/02 13:13:52;;;;;;;0.22;0.17;;;22.00;61.80;;;;;;5045825;28;20033;-75
2021/06/02 13:16:20;;;;;;;0.40;0.20;;;22.00;61.20;;;;;;5049289;28;20451;-75
2021/06/02 13:19:05;;;;;;;0.28;0.17;;;22.00;61.70;;;;;;5044861;28;20033;-75
2021/06/02 13:21:32;;;;;;;0.38;0.20;;;22.00;60.90;;;;;;5040177;28;20033;-75
2021/06/02 13:24:17;;;;;;;0.45;0.20;;;22.10;60.60;;;;;;5048287;28;20090;-75
2021/06/02 13:26:54;;;;;;;0.30;0.20;;;21.90;61.30;;;;;;5052907;28;20033;-75
2021/06/02 13:29:20;;;;;;;0.10;0.10;;;21.70;62.10;;;;;;5064740;28;20032;-75
2021/06/02 13:31:51;;;;;;;0.30;0.10;;;21.70;62.10;;;;;;5034663;28;20029;-75
2021/06/02 13:34:40;;;;;;;0.50;0.20;;;21.60;63.00;;;;;;5034422;28;20084;-75